Time;durP1;ratioP1;P1;durP2;ratioP2;P2;SDS_P1;SDS_P2;PMS_P1;PMS_P2;Temp;Humidity;BMP_temperature;BMP_pressure;BME280_temperature;BME280_humidity;BME280_pressure;Samples;Min_cycle;Max_cycle;Signal;HPM_P1;HPM_P2
2022/07/11 00:02:04;;;;;;;1.55;1.35;;;;;;;;;;5052280;28;20468;-63
2022/07/11 00:04:30;;;;;;;1.77;1.00;;;;;;;;;;5053940;28;20485;-63
2022/07/11 00:06:55;;;;;;;1.85;1.00;;;;;;;;;;5053685;28;20025;-63
2022/07/11 00:09:21;;;;;;;5.60;1.10;;;;;;;;;;5053159;28;20032;-62
2022/07/11 00:11:46;;;;;;;1.05;1.05;;;;;;;;;;5053968;28;20039;-64
2022/07/11 00:14:12;;;;;;;2.15;1.20;;;;;;;;;;5053795;28;20025;-65
2022/07/11 00:16:37;;;;;;;2.05;0.98;;;;;;;;;;5034957;28;20494;-64
2022/07/11 00:19:04;;;;;;;2.92;1.30;;;;;;;;;;5055001;28;20025;-64
2022/07/11 00:21:30;;;;;;;1.20;1.00;;;;;;;;;;5052959;28;20032;-64
2022/07/11 00:23:55;;;;;;;1.80;1.02;;;;;;;;;;5053308;28;20036;-63
2022/07/11 00:26:20;;;;;;;2.13;1.30;;;;;;;;;;5038585;28;20151;-63
2022/07/11 00:28:45;;;;;;;1.13;1.10;;;;;;;;;;5053844;28;20089;-64
2022/07/11 00:31:10;;;;;;;1.27;1.00;;;;;;;;;;5052286;28;20049;-64
2022/07/11 00:33:37;;;;;;;1.30;1.20;;;;;;;;;;5052504;28;20403;-65
2022/07/11 00:36:04;;;;;;;3.03;1.10;;;;;;;;;;5038902;28;20025;-64
2022/07/11 00:38:30;;;;;;;1.55;1.10;;;;;;;;;;5053307;28;20045;-63
2022/07/11 00:40:55;;;;;;;2.40;1.30;;;;;;;;;;5053384;28;20039;-64
2022/07/11 00:43:29;;;;;;;3.72;1.30;;;;;;;;;;5053068;28;20040;-63
2022/07/11 00:45:54;;;;;;;2.80;1.20;;;;;;;;;;5052658;28;20499;-64
2022/07/11 00:48:19;;;;;;;2.72;0.90;;;;;;;;;;5037670;28;20073;-63
2022/07/11 00:50:44;;;;;;;1.17;1.15;;;;;;;;;;5052831;28;20075;-63
2022/07/11 00:53:10;;;;;;;1.00;1.00;;;;;;;;;;5052018;28;20033;-64
2022/07/11 00:55:35;;;;;;;1.85;1.00;;;;;;;;;;5053130;28;20025;-63
2022/07/11 00:58:00;;;;;;;3.33;1.25;;;;;;;;;;5053656;28;20505;-64
2022/07/11 01:00:26;;;;;;;2.72;1.33;;;;;;;;;;5034073;28;20033;-63
2022/07/11 01:02:51;;;;;;;2.72;1.20;;;;;;;;;;5038963;28;20068;-63
2022/07/11 01:05:16;;;;;;;2.90;1.13;;;;;;;;;;5052955;28;20024;-64
2022/07/11 01:07:41;;;;;;;1.30;1.30;;;;;;;;;;5052557;28;20029;-64
2022/07/11 01:10:07;;;;;;;3.35;1.25;;;;;;;;;;5052750;28;20032;-64
2022/07/11 01:12:32;;;;;;;2.00;1.80;;;;;;;;;;5051460;28;20029;-65
2022/07/11 01:14:59;;;;;;;3.50;1.58;;;;;;;;;;5053211;28;20029;-64
2022/07/11 01:17:24;;;;;;;1.08;1.00;;;;;;;;;;5052935;28;20024;-63
2022/07/11 01:19:49;;;;;;;2.10;1.05;;;;;;;;;;5053758;28;20460;-63
2022/07/11 01:22:15;;;;;;;1.20;1.10;;;;;;;;;;5054256;28;20495;-63
2022/07/11 01:24:44;;;;;;;1.08;1.08;;;;;;;;;;5051273;28;20036;-63
2022/07/11 01:27:09;;;;;;;1.48;0.88;;;;;;;;;;5034627;28;20028;-63
2022/07/11 01:29:34;;;;;;;2.55;1.30;;;;;;;;;;5050828;28;20459;-63
2022/07/11 01:31:59;;;;;;;1.13;1.13;;;;;;;;;;5051450;28;20021;-64
2022/07/11 01:34:24;;;;;;;3.00;1.35;;;;;;;;;;5034623;28;20035;-64
2022/07/11 01:36:50;;;;;;;1.60;1.00;;;;;;;;;;5053148;28;20031;-64
2022/07/11 01:39:15;;;;;;;1.60;1.00;;;;;;;;;;5052200;28;20052;-63
2022/07/11 01:41:40;;;;;;;1.27;1.00;;;;;;;;;;5052925;28;20067;-63
2022/07/11 01:44:07;;;;;;;2.30;2.10;;;;;;;;;;5052264;28;20495;-64
2022/07/11 01:46:32;;;;;;;2.00;1.10;;;;;;;;;;5051719;28;20122;-63
2022/07/11 01:48:58;;;;;;;1.58;1.17;;;;;;;;;;5031531;28;20113;-63
2022/07/11 01:51:24;;;;;;;2.05;1.00;;;;;;;;;;5039539;28;20394;-64
2022/07/11 01:53:50;;;;;;;0.98;0.98;;;;;;;;;;5052862;28;20032;-63
2022/07/11 01:56:15;;;;;;;1.48;1.30;;;;;;;;;;5050448;28;20020;-63
2022/07/11 01:58:40;;;;;;;3.00;1.02;;;;;;;;;;5051539;28;20075;-62
2022/07/11 02:01:05;;;;;;;1.23;1.13;;;;;;;;;;5019700;28;20537;-63
2022/07/11 02:03:31;;;;;;;0.90;0.90;;;;;;;;;;5052080;28;20024;-63
2022/07/11 02:05:56;;;;;;;2.75;1.30;;;;;;;;;;5051068;28;20037;-64
2022/07/11 02:08:21;;;;;;;2.17;1.20;;;;;;;;;;5052817;28;20021;-62
2022/07/11 02:10:47;;;;;;;1.45;1.35;;;;;;;;;;5052731;28;20680;-63
2022/07/11 02:13:14;;;;;;;1.20;1.10;;;;;;;;;;5051997;28;20021;-63
2022/07/11 02:15:40;;;;;;;1.27;1.20;;;;;;;;;;5052826;28;20064;-64
2022/07/11 02:18:05;;;;;;;2.58;1.23;;;;;;;;;;5049862;28;20129;-64
2022/07/11 02:20:30;;;;;;;1.77;1.25;;;;;;;;;;5052548;28;20121;-64
2022/07/11 02:22:57;;;;;;;1.40;0.93;;;;;;;;;;5050091;28;20036;-62
2022/07/11 02:25:22;;;;;;;2.38;1.30;;;;;;;;;;5055381;28;20469;-63
2022/07/11 02:27:48;;;;;;;1.50;1.40;;;;;;;;;;5055045;28;20024;-62
2022/07/11 02:30:13;;;;;;;1.45;1.35;;;;;;;;;;5055563;28;20742;-64
2022/07/11 02:32:38;;;;;;;1.58;1.15;;;;;;;;;;5055416;28;20021;-65
2022/07/11 02:35:04;;;;;;;1.40;1.30;;;;;;;;;;5054638;28;20086;-62
2022/07/11 02:37:29;;;;;;;1.73;1.20;;;;;;;;;;5054851;28;20033;-65
2022/07/11 02:39:55;;;;;;;1.63;1.45;;;;;;;;;;5055687;28;20407;-63
2022/07/11 02:42:20;;;;;;;2.17;1.40;;;;;;;;;;5055777;28;20038;-63
2022/07/11 02:44:45;;;;;;;1.90;1.48;;;;;;;;;;5054993;28;20190;-63
2022/07/11 02:47:10;;;;;;;2.67;1.40;;;;;;;;;;5037458;28;20024;-63
2022/07/11 02:49:36;;;;;;;2.15;1.00;;;;;;;;;;5055098;28;20531;-63
2022/07/11 02:52:01;;;;;;;1.08;1.08;;;;;;;;;;5053841;28;20486;-63
2022/07/11 02:54:26;;;;;;;1.23;1.20;;;;;;;;;;5056583;28;20035;-63
2022/07/11 02:56:52;;;;;;;2.35;1.45;;;;;;;;;;5054825;28;20471;-64
2022/07/11 02:59:17;;;;;;;1.10;1.00;;;;;;;;;;5040148;28;20028;-63
2022/07/11 03:01:42;;;;;;;1.90;1.30;;;;;;;;;;5055330;28;20029;-64
2022/07/11 03:04:08;;;;;;;1.48;1.20;;;;;;;;;;5036963;28;20508;-64
2022/07/11 03:06:34;;;;;;;2.67;1.27;;;;;;;;;;5038911;28;20448;-64
2022/07/11 03:08:59;;;;;;;1.38;1.27;;;;;;;;;;5054889;28;20408;-63
2022/07/11 03:11:24;;;;;;;1.63;1.00;;;;;;;;;;5053985;28;20040;-64
2022/07/11 03:13:50;;;;;;;5.20;1.55;;;;;;;;;;5053994;28;20429;-64
2022/07/11 03:16:15;;;;;;;1.20;0.93;;;;;;;;;;5055766;28;20027;-64
2022/07/11 03:18:40;;;;;;;2.45;1.08;;;;;;;;;;5053382;28;20045;-64
2022/07/11 03:21:05;;;;;;;1.65;1.58;;;;;;;;;;5054142;28;20033;-64
2022/07/11 03:23:30;;;;;;;1.63;1.50;;;;;;;;;;5054710;28;20118;-64
2022/07/11 03:25:56;;;;;;;2.08;1.05;;;;;;;;;;5053539;28;20086;-62
2022/07/11 03:28:21;;;;;;;1.20;1.02;;;;;;;;;;5053489;28;20391;-63
2022/07/11 03:30:46;;;;;;;1.75;1.10;;;;;;;;;;5054821;28;20039;-63
2022/07/11 03:33:11;;;;;;;2.78;1.58;;;;;;;;;;5038856;28;20033;-64
2022/07/11 03:35:43;;;;;;;1.50;1.00;;;;;;;;;;5052287;28;20028;-63
2022/07/11 03:38:08;;;;;;;2.58;1.30;;;;;;;;;;5054459;28;20064;-63
2022/07/11 03:40:33;;;;;;;1.30;1.20;;;;;;;;;;5045418;28;20095;-64
2022/07/11 03:42:59;;;;;;;1.42;1.20;;;;;;;;;;5053261;28;20036;-63
2022/07/11 03:45:24;;;;;;;1.38;1.20;;;;;;;;;;5054985;28;20025;-64
2022/07/11 03:47:49;;;;;;;1.00;1.00;;;;;;;;;;5055805;28;20613;-63
2022/07/11 03:50:15;;;;;;;1.20;1.10;;;;;;;;;;5053840;28;20055;-64
2022/07/11 03:52:40;;;;;;;2.38;1.20;;;;;;;;;;5054731;28;20091;-63
2022/07/11 03:55:07;;;;;;;1.95;1.25;;;;;;;;;;5053680;28;20109;-63
2022/07/11 03:57:33;;;;;;;2.38;1.10;;;;;;;;;;5055208;28;20053;-63
2022/07/11 03:59:58;;;;;;;1.95;1.15;;;;;;;;;;5053883;28;20078;-63
2022/07/11 04:02:24;;;;;;;3.08;0.93;;;;;;;;;;5054023;28;20037;-63
2022/07/11 04:04:49;;;;;;;0.85;0.85;;;;;;;;;;5053579;28;20526;-65
2022/07/11 04:07:14;;;;;;;3.35;1.20;;;;;;;;;;5053428;28;20551;-63
2022/07/11 04:09:39;;;;;;;2.10;1.05;;;;;;;;;;5054510;28;20024;-64
2022/07/11 04:12:05;;;;;;;2.28;1.10;;;;;;;;;;5053103;28;20033;-63
2022/07/11 04:14:30;;;;;;;1.33;1.23;;;;;;;;;;5054946;28;20147;-63
2022/07/11 04:16:55;;;;;;;1.27;1.17;;;;;;;;;;5053109;28;20024;-64
2022/07/11 04:19:20;;;;;;;1.00;1.00;;;;;;;;;;5055094;28;20044;-64
2022/07/11 04:21:46;;;;;;;1.00;1.00;;;;;;;;;;5053781;28;20029;-63
2022/07/11 04:24:11;;;;;;;3.03;1.00;;;;;;;;;;5053294;28;20037;-63
2022/07/11 04:26:36;;;;;;;1.60;1.40;;;;;;;;;;5054499;28;20040;-63
2022/07/11 04:29:02;;;;;;;1.98;1.10;;;;;;;;;;5052158;28;20033;-63
2022/07/11 04:31:28;;;;;;;1.30;1.17;;;;;;;;;;5053158;28;20108;-64
2022/07/11 04:33:53;;;;;;;1.90;1.08;;;;;;;;;;5051480;28;20144;-64
2022/07/11 04:36:19;;;;;;;1.52;1.15;;;;;;;;;;5053078;28;20032;-64
2022/07/11 04:38:44;;;;;;;1.92;1.30;;;;;;;;;;5052816;28;20370;-63
2022/07/11 04:41:09;;;;;;;3.78;1.35;;;;;;;;;;5033590;28;20090;-63
2022/07/11 04:43:36;;;;;;;1.92;1.20;;;;;;;;;;5052873;28;20070;-64
2022/07/11 04:46:02;;;;;;;2.28;1.20;;;;;;;;;;5052036;28;20025;-63
2022/07/11 04:48:27;;;;;;;3.53;1.00;;;;;;;;;;5051477;28;20441;-66
2022/07/11 04:50:53;;;;;;;0.80;0.80;;;;;;;;;;5053538;28;20024;-64
2022/07/11 04:53:19;;;;;;;2.35;1.10;;;;;;;;;;5052146;28;20032;-64
2022/07/11 04:55:44;;;;;;;2.85;1.58;;;;;;;;;;5053216;28;20024;-65
2022/07/11 04:58:09;;;;;;;1.75;1.15;;;;;;;;;;5051678;28;20383;-64
2022/07/11 05:00:35;;;;;;;1.00;1.00;;;;;;;;;;5053805;28;20024;-63
2022/07/11 05:03:00;;;;;;;1.20;1.10;;;;;;;;;;5051490;28;20029;-64
2022/07/11 05:05:26;;;;;;;2.50;1.40;;;;;;;;;;5036770;28;20027;-64
2022/07/11 05:07:51;;;;;;;1.38;1.15;;;;;;;;;;5051782;28;20032;-64
2022/07/11 05:10:16;;;;;;;1.00;1.00;;;;;;;;;;5052707;28;20032;-67
2022/07/11 05:12:41;;;;;;;1.85;1.13;;;;;;;;;;5052120;28;20029;-64
2022/07/11 05:15:08;;;;;;;2.58;1.20;;;;;;;;;;5052215;28;20992;-64
2022/07/11 05:17:33;;;;;;;1.20;1.10;;;;;;;;;;5052263;28;20538;-64
2022/07/11 05:19:58;;;;;;;1.30;1.20;;;;;;;;;;5051766;28;20028;-64
2022/07/11 05:22:23;;;;;;;1.55;1.20;;;;;;;;;;5052327;28;20426;-64
2022/07/11 05:24:48;;;;;;;1.00;1.00;;;;;;;;;;5052163;28;20028;-64
2022/07/11 05:27:14;;;;;;;3.05;1.15;;;;;;;;;;5051048;28;20031;-64
2022/07/11 05:29:39;;;;;;;1.40;1.20;;;;;;;;;;5054188;28;20029;-64
2022/07/11 05:32:05;;;;;;;2.35;1.10;;;;;;;;;;5052437;28;20025;-63
2022/07/11 05:34:30;;;;;;;1.80;1.40;;;;;;;;;;5051268;28;20140;-63
2022/07/11 05:36:55;;;;;;;2.58;1.20;;;;;;;;;;5051136;28;20060;-65
2022/07/11 05:39:21;;;;;;;1.27;1.25;;;;;;;;;;5052279;28;20049;-65
2022/07/11 05:41:46;;;;;;;2.25;1.30;;;;;;;;;;5021093;28;20033;-64
2022/07/11 05:44:11;;;;;;;1.33;1.20;;;;;;;;;;5053459;28;20052;-63
2022/07/11 05:46:39;;;;;;;2.25;1.33;;;;;;;;;;5052866;28;20462;-63
2022/07/11 05:49:06;;;;;;;1.20;1.10;;;;;;;;;;5052263;28;20033;-66
2022/07/11 05:51:31;;;;;;;1.25;1.13;;;;;;;;;;5055497;28;20025;-65
2022/07/11 05:53:56;;;;;;;1.50;1.23;;;;;;;;;;5054663;28;20032;-64
2022/07/11 05:56:22;;;;;;;1.60;1.05;;;;;;;;;;5054615;28;20036;-63
2022/07/11 05:58:47;;;;;;;2.13;1.27;;;;;;;;;;5052009;28;20037;-63
2022/07/11 06:01:12;;;;;;;2.47;1.52;;;;;;;;;;5053428;28;20025;-64
2022/07/11 06:03:37;;;;;;;1.75;1.52;;;;;;;;;;5052733;28;20040;-63
2022/07/11 06:06:04;;;;;;;1.92;1.13;;;;;;;;;;5052648;28;20037;-63
2022/07/11 06:08:41;;;;;;;1.42;1.20;;;;;;;;;;5050562;28;20390;-63
2022/07/11 06:11:13;;;;;;;3.35;1.27;;;;;;;;;;5051951;28;20062;-63
2022/07/11 06:13:39;;;;;;;1.27;1.20;;;;;;;;;;5051013;28;20033;-63
2022/07/11 06:16:06;;;;;;;3.85;1.65;;;;;;;;;;5052443;28;20008;-63
2022/07/11 06:18:31;;;;;;;1.70;1.60;;;;;;;;;;5052360;28;20112;-64
2022/07/11 06:20:57;;;;;;;1.73;1.63;;;;;;;;;;5033418;28;20036;-64
2022/07/11 06:23:22;;;;;;;1.45;1.33;;;;;;;;;;5051460;28;20040;-63
2022/07/11 06:25:47;;;;;;;2.42;1.50;;;;;;;;;;5052197;28;20485;-64
2022/07/11 06:28:12;;;;;;;2.38;1.65;;;;;;;;;;5051791;28;20067;-64
2022/07/11 06:30:37;;;;;;;1.65;1.48;;;;;;;;;;5035184;28;20116;-63
2022/07/11 06:33:03;;;;;;;2.03;1.50;;;;;;;;;;5033927;28;20116;-63
2022/07/11 06:35:28;;;;;;;2.35;1.42;;;;;;;;;;5049947;28;20025;-63
2022/07/11 06:37:54;;;;;;;2.15;1.30;;;;;;;;;;5052571;28;20053;-63
2022/07/11 06:40:19;;;;;;;2.95;1.60;;;;;;;;;;5036497;28;20474;-63
2022/07/11 06:42:45;;;;;;;2.47;1.70;;;;;;;;;;5051734;28;20037;-63
2022/07/11 06:45:10;;;;;;;1.58;1.40;;;;;;;;;;5052747;28;20021;-63
2022/07/11 06:47:35;;;;;;;2.88;1.70;;;;;;;;;;5052143;28;20037;-63
2022/07/11 06:50:01;;;;;;;1.40;1.30;;;;;;;;;;5050229;28;20036;-65
2022/07/11 06:52:26;;;;;;;2.97;1.40;;;;;;;;;;5052395;28;20025;-64
2022/07/11 06:54:51;;;;;;;3.60;1.10;;;;;;;;;;5051509;28;20027;-64
2022/07/11 06:57:17;;;;;;;1.67;1.58;;;;;;;;;;5051492;28;20068;-64
2022/07/11 06:59:42;;;;;;;1.75;1.65;;;;;;;;;;5049931;28;20487;-64
2022/07/11 07:02:07;;;;;;;3.28;1.60;;;;;;;;;;5051083;28;20081;-64
2022/07/11 07:04:33;;;;;;;2.25;1.58;;;;;;;;;;5033563;28;20032;-64
2022/07/11 07:07:00;;;;;;;1.75;1.65;;;;;;;;;;5052226;28;20031;-65
2022/07/11 07:09:26;;;;;;;3.38;1.55;;;;;;;;;;5035663;28;20044;-64
2022/07/11 07:11:51;;;;;;;1.65;1.40;;;;;;;;;;5054195;28;20554;-65
2022/07/11 07:14:16;;;;;;;2.95;2.03;;;;;;;;;;5036854;28;20043;-65
2022/07/11 07:16:41;;;;;;;1.40;1.30;;;;;;;;;;5030762;28;20032;-65
2022/07/11 07:19:07;;;;;;;2.05;1.42;;;;;;;;;;5053985;28;20111;-64
2022/07/11 07:21:32;;;;;;;1.73;1.40;;;;;;;;;;5055407;28;20037;-64
2022/07/11 07:23:57;;;;;;;3.75;1.50;;;;;;;;;;5053991;28;20035;-64
2022/07/11 07:26:22;;;;;;;2.22;1.60;;;;;;;;;;5053229;28;20118;-64
2022/07/11 07:28:48;;;;;;;1.60;1.50;;;;;;;;;;5055108;28;20608;-65
2022/07/11 07:31:13;;;;;;;1.83;1.73;;;;;;;;;;5053991;28;20037;-64
2022/07/11 07:33:38;;;;;;;1.70;1.60;;;;;;;;;;5055142;28;20029;-64
2022/07/11 07:36:03;;;;;;;4.03;2.15;;;;;;;;;;5037488;28;20387;-64
2022/07/11 07:38:29;;;;;;;4.38;1.58;;;;;;;;;;5055670;28;20059;-64
2022/07/11 07:40:54;;;;;;;1.70;1.60;;;;;;;;;;5074343;28;20351;-64
2022/07/11 07:43:19;;;;;;;2.50;1.83;;;;;;;;;;5074939;28;20028;-65
2022/07/11 07:45:45;;;;;;;2.60;1.70;;;;;;;;;;5073342;28;20036;-64
2022/07/11 07:48:10;;;;;;;1.98;1.85;;;;;;;;;;5074014;28;20035;-64
2022/07/11 07:50:35;;;;;;;1.77;1.55;;;;;;;;;;5073145;28;20032;-64
2022/07/11 07:53:01;;;;;;;1.90;1.80;;;;;;;;;;5074512;28;20063;-64
2022/07/11 07:55:26;;;;;;;1.75;1.65;;;;;;;;;;5073525;28;20036;-64
2022/07/11 07:57:51;;;;;;;2.20;1.88;;;;;;;;;;5074605;28;20409;-64
2022/07/11 08:03:09;;;;;;;2.47;1.75;;;;;;;;;;5074959;28;20058;-64
2022/07/11 08:05:34;;;;;;;1.70;1.63;;;;;;;;;;5074290;28;20407;-64
2022/07/11 08:08:00;;;;;;;2.05;1.63;;;;;;;;;;5074342;28;20032;-64
2022/07/11 08:10:25;;;;;;;2.13;1.92;;;;;;;;;;5075176;28;20028;-65
2022/07/11 08:12:50;;;;;;;3.83;1.70;;;;;;;;;;5072927;28;20075;-64
2022/07/11 08:15:16;;;;;;;1.75;1.65;;;;;;;;;;5071840;28;20037;-64
2022/07/11 08:17:41;;;;;;;1.58;1.52;;;;;;;;;;5073242;28;20020;-64
2022/07/11 08:20:06;;;;;;;1.67;1.52;;;;;;;;;;5073973;28;20041;-64
2022/07/11 08:22:32;;;;;;;2.65;1.63;;;;;;;;;;5072880;28;20478;-64
2022/07/11 08:24:57;;;;;;;1.60;1.50;;;;;;;;;;5072467;28;20447;-65
2022/07/11 08:27:22;;;;;;;1.67;1.58;;;;;;;;;;5074737;28;20020;-64
2022/07/11 08:29:48;;;;;;;2.95;1.70;;;;;;;;;;5072768;28;20070;-65
2022/07/11 08:32:13;;;;;;;1.52;1.40;;;;;;;;;;5073107;28;20028;-64
2022/07/11 08:34:39;;;;;;;1.73;1.63;;;;;;;;;;5072398;28;20040;-64
2022/07/11 08:37:04;;;;;;;2.10;1.90;;;;;;;;;;5074394;28;20024;-64
2022/07/11 08:39:29;;;;;;;2.42;2.22;;;;;;;;;;5054499;28;20148;-64
2022/07/11 08:41:55;;;;;;;3.80;1.70;;;;;;;;;;5052202;28;20530;-65
2022/07/11 08:44:20;;;;;;;2.35;1.60;;;;;;;;;;5035393;28;20033;-64
2022/07/11 08:46:45;;;;;;;1.80;1.70;;;;;;;;;;5035057;28;20029;-64
2022/07/11 08:49:13;;;;;;;2.10;2.00;;;;;;;;;;5053091;28;20132;-64
2022/07/11 08:51:39;;;;;;;4.00;2.00;;;;;;;;;;5053706;28;20056;-64
2022/07/11 08:54:04;;;;;;;3.95;1.90;;;;;;;;;;5052633;28;20120;-64
2022/07/11 08:56:30;;;;;;;2.05;1.52;;;;;;;;;;5051645;28;20040;-64
2022/07/11 08:58:57;;;;;;;2.30;1.38;;;;;;;;;;5053791;28;20028;-64
2022/07/11 09:01:30;;;;;;;4.10;2.00;;;;;;;;;;5052728;28;20021;-64
2022/07/11 09:03:56;;;;;;;2.83;1.77;;;;;;;;;;5052642;28;20025;-63
2022/07/11 09:06:21;;;;;;;1.98;1.88;;;;;;;;;;5032720;28;20048;-64
2022/07/11 09:08:46;;;;;;;2.67;2.22;;;;;;;;;;5052118;28;20581;-64
2022/07/11 09:11:12;;;;;;;2.50;1.85;;;;;;;;;;5051943;28;20035;-63
2022/07/11 09:13:40;;;;;;;1.80;1.70;;;;;;;;;;5052056;28;20033;-65
2022/07/11 09:16:07;;;;;;;2.70;1.60;;;;;;;;;;5034837;28;20047;-64
2022/07/11 09:18:35;;;;;;;1.63;1.52;;;;;;;;;;5052141;28;20117;-63
2022/07/11 09:26:29;;;;;;;5.25;2.13;;;;;;;;;;5052676;28;20070;-63
2022/07/11 09:29:08;;;;;;;1.70;1.60;;;;;;;;;;5051948;28;20016;-64
2022/07/11 09:31:34;;;;;;;3.38;1.80;;;;;;;;;;5052443;28;20523;-64
2022/07/11 09:34:01;;;;;;;2.28;1.70;;;;;;;;;;5050612;28;20106;-64
2022/07/11 09:36:33;;;;;;;1.60;1.50;;;;;;;;;;5052886;28;20466;-64
2022/07/11 09:39:00;;;;;;;2.20;1.60;;;;;;;;;;5052771;28;20242;-64
2022/07/11 09:41:26;;;;;;;4.72;2.00;;;;;;;;;;5052270;28;20096;-64
2022/07/11 09:43:51;;;;;;;1.90;1.80;;;;;;;;;;5034810;28;20064;-64
2022/07/11 09:46:23;;;;;;;2.13;1.90;;;;;;;;;;5052677;28;20413;-64
2022/07/11 09:48:48;;;;;;;2.17;1.98;;;;;;;;;;5053372;28;20032;-65
2022/07/11 09:51:19;;;;;;;2.15;2.05;;;;;;;;;;5052817;28;20505;-64
2022/07/11 09:53:57;;;;;;;1.70;1.50;;;;;;;;;;5051825;28;20059;-63
2022/07/11 09:56:25;;;;;;;1.63;1.60;;;;;;;;;;5052269;28;20432;-65
2022/07/11 09:59:01;;;;;;;2.63;1.95;;;;;;;;;;5051069;28;20020;-64
2022/07/11 10:01:28;;;;;;;2.13;1.80;;;;;;;;;;5043557;28;20082;-63
2022/07/11 10:03:53;;;;;;;1.60;1.50;;;;;;;;;;5050666;28;20028;-63
2022/07/11 10:06:19;;;;;;;1.67;1.58;;;;;;;;;;5050804;28;20048;-64
2022/07/11 10:08:44;;;;;;;1.67;1.58;;;;;;;;;;5051703;28;20082;-64
2022/07/11 10:11:11;;;;;;;2.35;2.25;;;;;;;;;;5053908;28;20040;-64
2022/07/11 10:13:36;;;;;;;2.45;1.67;;;;;;;;;;5050957;28;20471;-64
2022/07/11 10:16:03;;;;;;;4.75;2.00;;;;;;;;;;5052274;28;20032;-64
2022/07/11 10:18:29;;;;;;;3.03;1.90;;;;;;;;;;5052794;28;20029;-64
2022/07/11 10:21:04;;;;;;;2.33;2.10;;;;;;;;;;5051660;28;20041;-64
2022/07/11 10:23:38;;;;;;;3.55;2.00;;;;;;;;;;5050368;28;20036;-64
2022/07/11 10:26:08;;;;;;;2.38;1.63;;;;;;;;;;5051089;28;20123;-64
2022/07/11 10:28:37;;;;;;;2.28;1.90;;;;;;;;;;5051772;28;20047;-64
2022/07/11 10:31:03;;;;;;;1.88;1.70;;;;;;;;;;5052026;28;20025;-64
2022/07/11 10:33:28;;;;;;;2.65;2.25;;;;;;;;;;5050495;28;20056;-64
2022/07/11 10:35:54;;;;;;;2.00;1.90;;;;;;;;;;5051804;28;20028;-65
2022/07/11 10:38:21;;;;;;;2.10;1.75;;;;;;;;;;5051604;28;20064;-64
2022/07/11 10:40:47;;;;;;;1.80;1.70;;;;;;;;;;5034191;28;20033;-64
2022/07/11 10:43:32;;;;;;;2.08;1.98;;;;;;;;;;5050761;28;20395;-64
2022/07/11 10:46:11;;;;;;;3.95;1.70;;;;;;;;;;5053954;28;20438;-64
2022/07/11 10:48:56;;;;;;;1.73;1.63;;;;;;;;;;5055382;28;20052;-65
2022/07/11 10:51:28;;;;;;;1.73;1.63;;;;;;;;;;5009880;28;20044;-65
2022/07/11 10:53:53;;;;;;;2.05;1.73;;;;;;;;;;5046512;28;20381;-64
2022/07/11 10:56:34;;;;;;;1.67;1.58;;;;;;;;;;5055637;28;20020;-65
2022/07/11 10:59:08;;;;;;;2.20;1.70;;;;;;;;;;5055129;28;20455;-64
2022/07/11 11:01:34;;;;;;;1.70;1.60;;;;;;;;;;5054804;28;20033;-64
2022/07/11 11:04:19;;;;;;;3.55;1.85;;;;;;;;;;5054190;28;20043;-64
2022/07/11 11:06:57;;;;;;;1.33;1.20;;;;;;;;;;5053113;28;20342;-65
2022/07/11 11:09:38;;;;;;;2.05;1.40;;;;;;;;;;5054479;28;20164;-64
2022/07/11 11:12:03;;;;;;;3.95;1.58;;;;;;;;;;5054371;28;20029;-64
2022/07/11 11:14:28;;;;;;;2.40;1.55;;;;;;;;;;5055676;28;20084;-64
2022/07/11 11:16:54;;;;;;;1.85;1.73;;;;;;;;;;5056292;28;20033;-64
2022/07/11 11:19:38;;;;;;;1.92;1.35;;;;;;;;;;5054721;28;20025;-65
2022/07/11 11:22:12;;;;;;;1.55;1.38;;;;;;;;;;5054079;28;20029;-63
2022/07/11 11:24:38;;;;;;;2.00;1.85;;;;;;;;;;5055595;28;20457;-64
2022/07/11 11:27:03;;;;;;;4.30;1.80;;;;;;;;;;5038542;28;20033;-64
2022/07/11 11:29:29;;;;;;;1.40;1.30;;;;;;;;;;5053421;28;20037;-64
2022/07/11 11:31:58;;;;;;;1.55;1.40;;;;;;;;;;5055477;28;20032;-64
2022/07/11 11:34:24;;;;;;;1.83;1.73;;;;;;;;;;5054319;28;20670;-64
2022/07/11 11:36:53;;;;;;;1.73;1.60;;;;;;;;;;5054410;28;20148;-63
2022/07/11 11:39:26;;;;;;;2.00;1.30;;;;;;;;;;5055421;28;20059;-64
2022/07/11 11:41:51;;;;;;;1.30;1.20;;;;;;;;;;5053650;28;20053;-63
2022/07/11 11:44:16;;;;;;;1.60;1.38;;;;;;;;;;5052138;28;20120;-64
2022/07/11 11:46:42;;;;;;;1.42;1.33;;;;;;;;;;5055642;28;20025;-63
2022/07/11 11:49:07;;;;;;;1.20;1.10;;;;;;;;;;5054910;28;20386;-63
2022/07/11 11:51:32;;;;;;;1.27;1.20;;;;;;;;;;5039407;28;20028;-64
2022/07/11 11:54:02;;;;;;;1.70;1.63;;;;;;;;;;5053314;28;20215;-64
2022/07/11 11:56:30;;;;;;;1.98;1.50;;;;;;;;;;5053862;28;20137;-63
2022/07/11 11:59:15;;;;;;;2.30;1.33;;;;;;;;;;5053877;28;20761;-64
2022/07/11 12:01:43;;;;;;;2.40;1.40;;;;;;;;;;5054169;28;20142;-64
2022/07/11 12:04:10;;;;;;;1.10;1.10;;;;;;;;;;5054131;28;20478;-64
2022/07/11 12:06:42;;;;;;;1.30;1.30;;;;;;;;;;5053370;28;20040;-64
2022/07/11 12:09:12;;;;;;;1.52;1.42;;;;;;;;;;5054000;28;20017;-64
2022/07/11 12:11:37;;;;;;;1.85;1.60;;;;;;;;;;5054356;28;20576;-64
2022/07/11 12:14:05;;;;;;;1.10;1.10;;;;;;;;;;5035228;28;20036;-63
2022/07/11 12:16:41;;;;;;;1.65;1.55;;;;;;;;;;5053220;28;20078;-64
2022/07/11 12:19:07;;;;;;;1.30;1.30;;;;;;;;;;5053892;28;20502;-64
2022/07/11 12:21:33;;;;;;;1.38;1.27;;;;;;;;;;5038786;28;20040;-64
2022/07/11 12:24:00;;;;;;;1.15;1.10;;;;;;;;;;5053199;28;20032;-64
2022/07/11 12:26:26;;;;;;;1.30;1.30;;;;;;;;;;5053649;28;20031;-64
2022/07/11 12:29:16;;;;;;;1.30;1.30;;;;;;;;;;5054001;28;20033;-64
2022/07/11 12:32:01;;;;;;;1.10;1.10;;;;;;;;;;5053876;28;20031;-64
2022/07/11 12:34:32;;;;;;;2.60;1.00;;;;;;;;;;5052352;28;20371;-64
2022/07/11 12:37:04;;;;;;;2.47;1.10;;;;;;;;;;5052622;28;20040;-64
2022/07/11 12:39:31;;;;;;;1.63;1.20;;;;;;;;;;5053092;28;20059;-64
2022/07/11 12:41:57;;;;;;;1.33;1.33;;;;;;;;;;5053399;28;20033;-64
2022/07/11 12:47:07;;;;;;;1.00;1.00;;;;;;;;;;5052055;28;20135;-64
2022/07/11 12:49:33;;;;;;;1.05;1.05;;;;;;;;;;5035385;28;20462;-65
2022/07/11 12:52:00;;;;;;;1.30;1.17;;;;;;;;;;5054204;28;20119;-64
2022/07/11 12:54:29;;;;;;;1.23;1.23;;;;;;;;;;5053369;28;20127;-64
2022/07/11 12:56:56;;;;;;;1.20;1.00;;;;;;;;;;5052734;28;20033;-64
2022/07/11 12:59:22;;;;;;;1.08;1.08;;;;;;;;;;5035786;28;20040;-64
2022/07/11 13:02:10;;;;;;;1.23;1.23;;;;;;;;;;5052280;28;20048;-64
2022/07/11 13:04:41;;;;;;;1.27;1.20;;;;;;;;;;5053239;28;20039;-64
2022/07/11 13:10:11;;;;;;;1.10;1.10;;;;;;;;;;5052943;28;20082;-65
2022/07/11 13:12:37;;;;;;;1.10;1.10;;;;;;;;;;5051912;28;20125;-65
2022/07/11 13:15:09;;;;;;;1.67;0.98;;;;;;;;;;5052468;28;20139;-65
2022/07/11 13:17:39;;;;;;;1.27;1.27;;;;;;;;;;5052778;28;20021;-65
2022/07/11 13:20:06;;;;;;;1.88;1.40;;;;;;;;;;5037528;28;20036;-65
2022/07/11 13:22:31;;;;;;;1.45;1.35;;;;;;;;;;5053398;28;20403;-65
2022/07/11 13:24:56;;;;;;;1.85;1.58;;;;;;;;;;5035607;28;20028;-65
2022/07/11 13:27:22;;;;;;;1.30;1.30;;;;;;;;;;5052243;28;20035;-64
2022/07/11 13:29:47;;;;;;;1.27;1.27;;;;;;;;;;5051668;28;20376;-63
2022/07/11 13:32:12;;;;;;;2.55;1.50;;;;;;;;;;5053126;28;20372;-65
2022/07/11 13:34:38;;;;;;;2.80;1.63;;;;;;;;;;5052330;28;20029;-65
2022/07/11 13:37:03;;;;;;;1.83;1.50;;;;;;;;;;5051206;28;20085;-64
2022/07/11 13:39:28;;;;;;;1.50;1.40;;;;;;;;;;5053755;28;20091;-64
2022/07/11 13:41:53;;;;;;;1.90;1.30;;;;;;;;;;5051384;28;20060;-64
2022/07/11 13:44:18;;;;;;;1.42;0.90;;;;;;;;;;5051539;28;20116;-64
2022/07/11 13:46:44;;;;;;;1.33;1.23;;;;;;;;;;5050765;28;20138;-65
2022/07/11 13:49:11;;;;;;;1.50;1.40;;;;;;;;;;5052983;28;20043;-63
2022/07/11 13:51:36;;;;;;;1.10;1.10;;;;;;;;;;5051271;28;20029;-64
2022/07/11 13:54:02;;;;;;;1.42;1.35;;;;;;;;;;5052381;28;20029;-64
2022/07/11 13:56:28;;;;;;;1.75;1.38;;;;;;;;;;5034085;28;20505;-64
2022/07/11 13:58:53;;;;;;;1.23;1.23;;;;;;;;;;5050750;28;20045;-65
2022/07/11 14:01:19;;;;;;;1.88;1.33;;;;;;;;;;5051631;28;20146;-63
2022/07/11 14:03:44;;;;;;;1.10;1.10;;;;;;;;;;5051948;28;20056;-64
2022/07/11 14:06:09;;;;;;;1.10;1.10;;;;;;;;;;5035054;28;20021;-64
2022/07/11 14:08:34;;;;;;;2.22;1.42;;;;;;;;;;5050489;28;20032;-64
2022/07/11 14:10:59;;;;;;;1.83;1.45;;;;;;;;;;5051833;28;20033;-66
2022/07/11 14:13:25;;;;;;;1.63;1.63;;;;;;;;;;5053309;28;20072;-64
2022/07/11 14:15:51;;;;;;;1.02;1.02;;;;;;;;;;5051658;28;20517;-64
2022/07/11 14:18:16;;;;;;;1.98;1.10;;;;;;;;;;5052637;28;20498;-64
2022/07/11 14:20:41;;;;;;;2.33;1.30;;;;;;;;;;5053563;28;20089;-63
2022/07/11 14:23:06;;;;;;;2.88;1.73;;;;;;;;;;5055974;28;20032;-63
2022/07/11 14:25:32;;;;;;;2.95;1.80;;;;;;;;;;5054660;28;20522;-64
2022/07/11 14:27:57;;;;;;;1.60;1.50;;;;;;;;;;5055682;28;20539;-63
2022/07/11 14:30:23;;;;;;;1.20;1.20;;;;;;;;;;5055809;28;20039;-64
2022/07/11 14:32:48;;;;;;;1.80;1.70;;;;;;;;;;5055440;28;20037;-64
2022/07/11 14:35:14;;;;;;;1.50;1.40;;;;;;;;;;5055829;28;20495;-63
2022/07/11 14:37:39;;;;;;;1.42;1.40;;;;;;;;;;5055336;28;20053;-63
2022/07/11 14:40:04;;;;;;;1.83;1.35;;;;;;;;;;5024238;28;20025;-64
2022/07/11 14:42:30;;;;;;;1.27;1.27;;;;;;;;;;5055111;28;20463;-64
2022/07/11 14:44:55;;;;;;;1.00;1.00;;;;;;;;;;5054931;28;20029;-64
2022/07/11 14:47:21;;;;;;;1.30;1.30;;;;;;;;;;5055205;28;20028;-65
2022/07/11 14:49:46;;;;;;;2.78;1.23;;;;;;;;;;5036261;28;20143;-64
2022/07/11 14:52:12;;;;;;;1.75;1.10;;;;;;;;;;5055103;28;20627;-64
2022/07/11 14:54:37;;;;;;;1.65;1.13;;;;;;;;;;5055512;28;20490;-64